sensor_id;sensor_type;location;lat;lon;timestamp;pressure;altitude;pressure_sealevel;temperature;humidity
62849;BME280;48941;49.516;8.286;2024-01-06T00:02:26;99221.25;;;4.83;100.00
62849;BME280;48941;49.516;8.286;2024-01-06T00:04:55;99233.94;;;4.77;100.00
62849;BME280;48941;49.516;8.286;2024-01-06T00:07:23;99233.53;;;4.71;100.00
62849;BME280;48941;49.516;8.286;2024-01-06T00:09:51;99238.53;;;4.63;100.00
62849;BME280;48941;49.516;8.286;2024-01-06T00:12:19;99245.97;;;4.57;100.00
62849;BME280;48941;49.516;8.286;2024-01-06T00:14:47;99245.47;;;4.52;100.00
62849;BME280;48941;49.516;8.286;2024-01-06T00:17:15;99250.94;;;4.49;100.00
62849;BME280;48941;49.516;8.286;2024-01-06T00:19:46;99250.56;;;4.43;100.00
62849;BME280;48941;49.516;8.286;2024-01-06T00:22:19;99246.19;;;4.30;100.00
62849;BME280;48941;49.516;8.286;2024-01-06T00:24:46;99250.63;;;4.30;100.00
62849;BME280;48941;49.516;8.286;2024-01-06T00:27:14;99248.53;;;4.22;100.00
62849;BME280;48941;49.516;8.286;2024-01-06T00:29:43;99253.19;;;4.18;100.00
62849;BME280;48941;49.516;8.286;2024-01-06T00:32:10;99250.66;;;4.17;100.00
62849;BME280;48941;49.516;8.286;2024-01-06T00:34:38;99255.38;;;4.25;100.00
62849;BME280;48941;49.516;8.286;2024-01-06T00:37:08;99259.47;;;4.29;100.00
62849;BME280;48941;49.516;8.286;2024-01-06T00:39:37;99267.19;;;4.19;100.00
62849;BME280;48941;49.516;8.286;2024-01-06T00:42:05;99260.78;;;4.10;100.00
62849;BME280;48941;49.516;8.286;2024-01-06T00:44:36;99267.13;;;4.08;100.00
62849;BME280;48941;49.516;8.286;2024-01-06T00:47:04;99260.06;;;4.08;100.00
62849;BME280;48941;49.516;8.286;2024-01-06T00:49:32;99261.22;;;4.04;100.00
62849;BME280;48941;49.516;8.286;2024-01-06T00:52:00;99272.09;;;3.99;100.00
62849;BME280;48941;49.516;8.286;2024-01-06T00:54:28;99278.13;;;4.02;100.00
62849;BME280;48941;49.516;8.286;2024-01-06T00:56:57;99265.78;;;4.02;100.00
62849;BME280;48941;49.516;8.286;2024-01-06T00:59:25;99273.44;;;4.05;100.00
62849;BME280;48941;49.516;8.286;2024-01-06T01:01:53;99271.34;;;4.10;100.00
62849;BME280;48941;49.516;8.286;2024-01-06T01:04:21;99271.00;;;4.15;100.00
62849;BME280;48941;49.516;8.286;2024-01-06T01:06:49;99276.69;;;4.22;100.00
62849;BME280;48941;49.516;8.286;2024-01-06T01:09:17;99282.34;;;4.28;100.00
62849;BME280;48941;49.516;8.286;2024-01-06T01:11:45;99286.00;;;4.38;100.00
62849;BME280;48941;49.516;8.286;2024-01-06T01:14:14;99282.94;;;4.45;100.00
62849;BME280;48941;49.516;8.286;2024-01-06T01:16:45;99280.81;;;4.50;100.00
62849;BME280;48941;49.516;8.286;2024-01-06T01:19:13;99279.63;;;4.54;100.00
62849;BME280;48941;49.516;8.286;2024-01-06T01:21:41;99284.81;;;4.55;100.00
62849;BME280;48941;49.516;8.286;2024-01-06T01:24:11;99276.75;;;4.57;100.00
62849;BME280;48941;49.516;8.286;2024-01-06T01:26:38;99280.25;;;4.57;100.00
62849;BME280;48941;49.516;8.286;2024-01-06T01:29:06;99286.38;;;4.58;100.00
62849;BME280;48941;49.516;8.286;2024-01-06T01:31:35;99290.19;;;4.54;100.00
62849;BME280;48941;49.516;8.286;2024-01-06T01:34:03;99292.19;;;4.50;100.00
62849;BME280;48941;49.516;8.286;2024-01-06T01:36:31;99295.16;;;4.46;100.00
62849;BME280;48941;49.516;8.286;2024-01-06T01:39:00;99297.81;;;4.46;100.00
62849;BME280;48941;49.516;8.286;2024-01-06T01:41:28;99299.72;;;4.44;100.00
62849;BME280;48941;49.516;8.286;2024-01-06T01:43:56;99299.72;;;4.44;100.00
62849;BME280;48941;49.516;8.286;2024-01-06T01:46:29;99307.72;;;4.42;100.00
62849;BME280;48941;49.516;8.286;2024-01-06T01:49:00;99313.09;;;4.41;100.00
62849;BME280;48941;49.516;8.286;2024-01-06T01:51:29;99310.56;;;4.39;100.00
62849;BME280;48941;49.516;8.286;2024-01-06T01:53:57;99309.41;;;4.43;100.00
62849;BME280;48941;49.516;8.286;2024-01-06T01:56:26;99300.66;;;4.43;100.00
62849;BME280;48941;49.516;8.286;2024-01-06T01:58:54;99301.63;;;4.42;100.00
62849;BME280;48941;49.516;8.286;2024-01-06T02:01:22;99303.53;;;4.39;100.00
62849;BME280;48941;49.516;8.286;2024-01-06T02:03:50;99313.09;;;4.41;100.00
62849;BME280;48941;49.516;8.286;2024-01-06T02:06:20;99315.63;;;4.42;100.00
62849;BME280;48941;49.516;8.286;2024-01-06T02:08:49;99317.22;;;4.45;100.00
62849;BME280;48941;49.516;8.286;2024-01-06T02:11:18;99311.94;;;4.45;100.00
62849;BME280;48941;49.516;8.286;2024-01-06T02:13:46;99311.72;;;4.48;100.00
62849;BME280;48941;49.516;8.286;2024-01-06T02:16:14;99311.72;;;4.48;100.00
62849;BME280;48941;49.516;8.286;2024-01-06T02:18:41;99311.28;;;4.54;100.00
62849;BME280;48941;49.516;8.286;2024-01-06T02:21:09;99318.94;;;4.57;100.00
62849;BME280;48941;49.516;8.286;2024-01-06T02:23:39;99317.91;;;4.59;100.00
62849;BME280;48941;49.516;8.286;2024-01-06T02:26:07;99311.31;;;4.65;100.00
62849;BME280;48941;49.516;8.286;2024-01-06T02:28:34;99313.84;;;4.67;100.00
62849;BME280;48941;49.516;8.286;2024-01-06T02:31:02;99311.00;;;4.70;100.00
62849;BME280;48941;49.516;8.286;2024-01-06T02:33:30;99311.19;;;4.79;100.00
62849;BME280;48941;49.516;8.286;2024-01-06T02:35:58;99325.09;;;4.82;100.00
62849;BME280;48941;49.516;8.286;2024-01-06T02:38:26;99325.13;;;4.93;100.00
62849;BME280;48941;49.516;8.286;2024-01-06T02:40:55;99319.66;;;4.96;100.00
62849;BME280;48941;49.516;8.286;2024-01-06T02:43:23;99325.41;;;5.01;100.00
62849;BME280;48941;49.516;8.286;2024-01-06T02:45:52;99323.28;;;5.06;100.00
62849;BME280;48941;49.516;8.286;2024-01-06T02:48:20;99325.81;;;5.08;100.00
62849;BME280;48941;49.516;8.286;2024-01-06T02:50:48;99328.22;;;5.11;100.00
62849;BME280;48941;49.516;8.286;2024-01-06T02:53:16;99321.88;;;5.13;100.00
62849;BME280;48941;49.516;8.286;2024-01-06T02:55:44;99316.47;;;5.15;100.00
62849;BME280;48941;49.516;8.286;2024-01-06T02:58:13;99311.81;;;5.18;100.00
62849;BME280;48941;49.516;8.286;2024-01-06T03:00:41;99314.69;;;5.15;100.00
62849;BME280;48941;49.516;8.286;2024-01-06T03:03:08;99314.34;;;5.20;100.00
62849;BME280;48941;49.516;8.286;2024-01-06T03:05:36;99321.28;;;5.21;100.00
62849;BME280;48941;49.516;8.286;2024-01-06T03:08:05;99322.75;;;5.25;100.00
62849;BME280;48941;49.516;8.286;2024-01-06T03:10:33;99325.06;;;5.30;100.00
62849;BME280;48941;49.516;8.286;2024-01-06T03:13:03;99326.13;;;5.27;100.00
62849;BME280;48941;49.516;8.286;2024-01-06T03:15:32;99323.25;;;5.30;100.00
62849;BME280;48941;49.516;8.286;2024-01-06T03:18:00;99328.41;;;5.32;100.00
62849;BME280;48941;49.516;8.286;2024-01-06T03:20:28;99329.97;;;5.34;100.00
62849;BME280;48941;49.516;8.286;2024-01-06T03:22:55;99336.34;;;5.32;100.00
62849;BME280;48941;49.516;8.286;2024-01-06T03:25:23;99332.88;;;5.31;100.00
62849;BME280;48941;49.516;8.286;2024-01-06T03:27:51;99343.19;;;5.34;100.00
62849;BME280;48941;49.516;8.286;2024-01-06T03:30:19;99348.56;;;5.33;100.00
62849;BME280;48941;49.516;8.286;2024-01-06T03:32:48;99351.94;;;5.35;100.00
62849;BME280;48941;49.516;8.286;2024-01-06T03:35:19;99350.25;;;5.34;100.00
62849;BME280;48941;49.516;8.286;2024-01-06T03:37:47;99361.56;;;5.36;100.00
62849;BME280;48941;49.516;8.286;2024-01-06T03:40:15;99354.94;;;5.30;100.00
62849;BME280;48941;49.516;8.286;2024-01-06T03:42:43;99352.06;;;5.33;100.00
62849;BME280;48941;49.516;8.286;2024-01-06T03:45:11;99351.00;;;5.36;100.00
62849;BME280;48941;49.516;8.286;2024-01-06T03:47:38;99353.53;;;5.37;100.00
62849;BME280;48941;49.516;8.286;2024-01-06T03:50:08;99355.44;;;5.35;100.00
62849;BME280;48941;49.516;8.286;2024-01-06T03:52:36;99346.91;;;5.32;100.00
62849;BME280;48941;49.516;8.286;2024-01-06T03:55:05;99347.50;;;5.35;100.00
62849;BME280;48941;49.516;8.286;2024-01-06T03:57:33;99346.53;;;5.36;100.00
62849;BME280;48941;49.516;8.286;2024-01-06T04:00:01;99351.81;;;5.36;100.00
62849;BME280;48941;49.516;8.286;2024-01-06T04:02:29;99349.06;;;5.38;100.00
62849;BME280;48941;49.516;8.286;2024-01-06T04:04:57;99348.97;;;5.39;100.00
62849;BME280;48941;49.516;8.286;2024-01-06T04:07:26;99358.56;;;5.41;100.00
62849;BME280;48941;49.516;8.286;2024-01-06T04:09:54;99365.75;;;5.38;100.00
62849;BME280;48941;49.516;8.286;2024-01-06T04:12:22;99357.72;;;5.40;100.00
62849;BME280;48941;49.516;8.286;2024-01-06T04:14:49;99359.28;;;5.43;100.00
62849;BME280;48941;49.516;8.286;2024-01-06T04:17:17;99355.91;;;5.41;100.00
62849;BME280;48941;49.516;8.286;2024-01-06T04:19:45;99357.63;;;5.42;100.00
62849;BME280;48941;49.516;8.286;2024-01-06T04:22:13;99354.97;;;5.42;100.00
62849;BME280;48941;49.516;8.286;2024-01-06T04:24:42;99347.88;;;5.42;100.00
62849;BME280;48941;49.516;8.286;2024-01-06T04:27:10;99344.53;;;5.40;100.00
62849;BME280;48941;49.516;8.286;2024-01-06T04:29:38;99354.97;;;5.42;100.00
62849;BME280;48941;49.516;8.286;2024-01-06T04:32:06;99346.19;;;5.41;100.00
62849;BME280;48941;49.516;8.286;2024-01-06T04:34:34;99351.59;;;5.39;100.00
62849;BME280;48941;49.516;8.286;2024-01-06T04:37:02;99355.09;;;5.40;100.00
62849;BME280;48941;49.516;8.286;2024-01-06T04:39:29;99348.81;;;5.41;100.00
62849;BME280;48941;49.516;8.286;2024-01-06T04:42:01;99342.50;;;5.44;100.00
62849;BME280;48941;49.516;8.286;2024-01-06T04:44:29;99343.22;;;5.46;100.00
62849;BME280;48941;49.516;8.286;2024-01-06T04:46:57;99344.06;;;5.46;100.00
62849;BME280;48941;49.516;8.286;2024-01-06T04:49:25;99346.59;;;5.48;100.00
62849;BME280;48941;49.516;8.286;2024-01-06T04:51:53;99353.53;;;5.49;100.00
62849;BME280;48941;49.516;8.286;2024-01-06T04:54:22;99362.44;;;5.48;100.00
62849;BME280;48941;49.516;8.286;2024-01-06T04:56:50;99362.31;;;5.49;100.00
62849;BME280;48941;49.516;8.286;2024-01-06T04:59:19;99343.94;;;5.48;100.00
62849;BME280;48941;49.516;8.286;2024-01-06T05:01:47;99345.63;;;5.49;100.00
62849;BME280;48941;49.516;8.286;2024-01-06T05:04:15;99351.97;;;5.46;100.00
62849;BME280;48941;49.516;8.286;2024-01-06T05:06:43;99351.25;;;5.44;100.00
62849;BME280;48941;49.516;8.286;2024-01-06T05:09:11;99350.41;;;5.44;100.00
62849;BME280;48941;49.516;8.286;2024-01-06T05:11:39;99345.88;;;5.46;100.00
62849;BME280;48941;49.516;8.286;2024-01-06T05:14:07;99342.38;;;5.45;100.00
62849;BME280;48941;49.516;8.286;2024-01-06T05:16:36;99351.25;;;5.44;100.00
62849;BME280;48941;49.516;8.286;2024-01-06T05:19:06;99354.72;;;5.45;100.00
62849;BME280;48941;49.516;8.286;2024-01-06T05:21:34;99361.72;;;5.46;100.00
62849;BME280;48941;49.516;8.286;2024-01-06T05:24:04;99370.47;;;5.46;100.00
62849;BME280;48941;49.516;8.286;2024-01-06T05:26:35;99365.19;;;5.46;100.00
62849;BME280;48941;49.516;8.286;2024-01-06T05:29:02;99369.53;;;5.47;100.00
62849;BME280;48941;49.516;8.286;2024-01-06T05:31:30;99361.47;;;5.49;100.00
62849;BME280;48941;49.516;8.286;2024-01-06T05:34:02;99366.75;;;5.49;100.00
62849;BME280;48941;49.516;8.286;2024-01-06T05:36:30;99367.72;;;5.48;100.00
62849;BME280;48941;49.516;8.286;2024-01-06T05:38:58;99373.63;;;5.51;100.00
62849;BME280;48941;49.516;8.286;2024-01-06T05:41:27;99370.72;;;5.54;100.00
62849;BME280;48941;49.516;8.286;2024-01-06T05:43:55;99369.06;;;5.53;100.00
62849;BME280;48941;49.516;8.286;2024-01-06T05:46:24;99377.94;;;5.52;100.00
62849;BME280;48941;49.516;8.286;2024-01-06T05:48:52;99377.94;;;5.52;100.00
62849;BME280;48941;49.516;8.286;2024-01-06T05:51:21;99381.28;;;5.54;100.00
62849;BME280;48941;49.516;8.286;2024-01-06T05:53:49;99380.47;;;5.54;100.00
62849;BME280;48941;49.516;8.286;2024-01-06T05:56:23;99386.34;;;5.57;100.00
62849;BME280;48941;49.516;8.286;2024-01-06T05:58:52;99380.22;;;5.57;100.00
62849;BME280;48941;49.516;8.286;2024-01-06T06:01:21;99376.72;;;5.56;100.00
62849;BME280;48941;49.516;8.286;2024-01-06T06:03:50;99387.28;;;5.56;100.00
62849;BME280;48941;49.516;8.286;2024-01-06T06:06:18;99390.91;;;5.55;100.00
62849;BME280;48941;49.516;8.286;2024-01-06T06:08:48;99398.59;;;5.58;100.00
62849;BME280;48941;49.516;8.286;2024-01-06T06:11:16;99403.88;;;5.58;100.00
62849;BME280;48941;49.516;8.286;2024-01-06T06:13:43;99403.78;;;5.60;100.00
62849;BME280;48941;49.516;8.286;2024-01-06T06:16:11;99407.97;;;5.63;100.00
62849;BME280;48941;49.516;8.286;2024-01-06T06:18:39;99409.78;;;5.62;100.00
62849;BME280;48941;49.516;8.286;2024-01-06T06:21:08;99411.34;;;5.65;100.00
62849;BME280;48941;49.516;8.286;2024-01-06T06:23:36;99415.69;;;5.66;100.00
62849;BME280;48941;49.516;8.286;2024-01-06T06:26:06;99414.59;;;5.68;100.00
62849;BME280;48941;49.516;8.286;2024-01-06T06:28:34;99416.28;;;5.69;100.00
62849;BME280;48941;49.516;8.286;2024-01-06T06:31:03;99416.41;;;5.68;100.00
62849;BME280;48941;49.516;8.286;2024-01-06T06:33:31;99421.69;;;5.68;100.00
62849;BME280;48941;49.516;8.286;2024-01-06T06:36:00;99423.72;;;5.64;100.00
62849;BME280;48941;49.516;8.286;2024-01-06T06:38:28;99429.81;;;5.65;100.00
62849;BME280;48941;49.516;8.286;2024-01-06T06:40:56;99427.31;;;5.63;100.00
62849;BME280;48941;49.516;8.286;2024-01-06T06:43:25;99435.25;;;5.63;100.00
62849;BME280;48941;49.516;8.286;2024-01-06T06:45:53;99435.25;;;5.63;100.00
62849;BME280;48941;49.516;8.286;2024-01-06T06:48:22;99436.19;;;5.62;100.00
62849;BME280;48941;49.516;8.286;2024-01-06T06:50:49;99443.19;;;5.63;100.00
62849;BME280;48941;49.516;8.286;2024-01-06T06:53:17;99443.28;;;5.62;100.00
62849;BME280;48941;49.516;8.286;2024-01-06T06:55:45;99445.69;;;5.65;100.00
62849;BME280;48941;49.516;8.286;2024-01-06T06:58:13;99456.25;;;5.65;100.00
62849;BME280;48941;49.516;8.286;2024-01-06T07:00:42;99456.50;;;5.62;100.00
62849;BME280;48941;49.516;8.286;2024-01-06T07:03:10;99459.97;;;5.62;100.00
62849;BME280;48941;49.516;8.286;2024-01-06T07:05:40;99459.97;;;5.62;100.00
62849;BME280;48941;49.516;8.286;2024-01-06T07:08:10;99467.78;;;5.64;100.00
62849;BME280;48941;49.516;8.286;2024-01-06T07:10:40;99472.25;;;5.63;100.00
62849;BME280;48941;49.516;8.286;2024-01-06T07:13:07;99475.94;;;5.61;100.00
62849;BME280;48941;49.516;8.286;2024-01-06T07:15:35;99476.03;;;5.59;100.00
62849;BME280;48941;49.516;8.286;2024-01-06T07:18:04;99480.28;;;5.62;100.00
62849;BME280;48941;49.516;8.286;2024-01-06T07:20:33;99480.16;;;5.63;100.00
62849;BME280;48941;49.516;8.286;2024-01-06T07:23:00;99486.28;;;5.64;100.00
62849;BME280;48941;49.516;8.286;2024-01-06T07:25:29;99489.75;;;5.64;100.00
62849;BME280;48941;49.516;8.286;2024-01-06T07:27:58;99501.16;;;5.65;100.00
62849;BME280;48941;49.516;8.286;2024-01-06T07:30:25;99497.56;;;5.66;100.00
62849;BME280;48941;49.516;8.286;2024-01-06T07:32:55;99502.97;;;5.64;100.00
62849;BME280;48941;49.516;8.286;2024-01-06T07:35:24;99507.31;;;5.65;100.00
62849;BME280;48941;49.516;8.286;2024-01-06T07:37:52;99518.38;;;5.70;100.00
62849;BME280;48941;49.516;8.286;2024-01-06T07:40:20;99517.44;;;5.71;100.00
62849;BME280;48941;49.516;8.286;2024-01-06T07:42:49;99528.00;;;5.71;100.00
62849;BME280;48941;49.516;8.286;2024-01-06T07:45:20;99527.75;;;5.74;100.00
62849;BME280;48941;49.516;8.286;2024-01-06T07:47:48;99533.13;;;5.73;100.00
62849;BME280;48941;49.516;8.286;2024-01-06T07:50:16;99539.28;;;5.73;100.00
62849;BME280;48941;49.516;8.286;2024-01-06T07:52:47;99541.19;;;5.71;100.00
62849;BME280;48941;49.516;8.286;2024-01-06T07:55:17;99547.22;;;5.73;100.00
62849;BME280;48941;49.516;8.286;2024-01-06T07:57:45;99538.41;;;5.73;100.00
62849;BME280;48941;49.516;8.286;2024-01-06T08:00:13;99540.03;;;5.75;100.00
62849;BME280;48941;49.516;8.286;2024-01-06T08:02:42;99547.94;;;5.75;100.00
62849;BME280;48941;49.516;8.286;2024-01-06T08:05:10;99547.69;;;5.78;100.00
62849;BME280;48941;49.516;8.286;2024-01-06T08:07:39;99549.41;;;5.79;100.00
62849;BME280;48941;49.516;8.286;2024-01-06T08:10:08;99548.53;;;5.79;100.00
62849;BME280;48941;49.516;8.286;2024-01-06T08:12:36;99545.78;;;5.81;100.00
62849;BME280;48941;49.516;8.286;2024-01-06T08:15:05;99557.09;;;5.83;100.00
62849;BME280;48941;49.516;8.286;2024-01-06T08:17:35;99564.28;;;5.81;100.00
62849;BME280;48941;49.516;8.286;2024-01-06T08:20:03;99561.53;;;5.82;100.00
62849;BME280;48941;49.516;8.286;2024-01-06T08:22:32;99560.34;;;5.86;100.00
62849;BME280;48941;49.516;8.286;2024-01-06T08:25:00;99557.59;;;5.88;100.00
62849;BME280;48941;49.516;8.286;2024-01-06T08:27:30;99563.72;;;5.88;100.00
62849;BME280;48941;49.516;8.286;2024-01-06T08:29:58;99561.09;;;5.88;100.00
62849;BME280;48941;49.516;8.286;2024-01-06T08:32:26;99558.44;;;5.88;100.00
62849;BME280;48941;49.516;8.286;2024-01-06T08:34:54;99571.56;;;5.90;100.00
62849;BME280;48941;49.516;8.286;2024-01-06T08:37:22;99566.16;;;5.91;100.00
62849;BME280;48941;49.516;8.286;2024-01-06T08:39:50;99574.09;;;5.91;100.00
62849;BME280;48941;49.516;8.286;2024-01-06T08:42:18;99574.09;;;5.91;100.00
62849;BME280;48941;49.516;8.286;2024-01-06T08:44:47;99578.41;;;5.92;100.00
62849;BME280;48941;49.516;8.286;2024-01-06T08:47:14;99589.81;;;5.93;100.00
62849;BME280;48941;49.516;8.286;2024-01-06T08:49:42;99577.56;;;5.92;100.00
62849;BME280;48941;49.516;8.286;2024-01-06T08:52:10;99595.84;;;5.95;100.00
62849;BME280;48941;49.516;8.286;2024-01-06T08:54:38;99595.09;;;5.93;100.00
62849;BME280;48941;49.516;8.286;2024-01-06T08:57:06;99591.44;;;5.95;100.00
62849;BME280;48941;49.516;8.286;2024-01-06T08:59:34;99594.81;;;5.97;100.00
62849;BME280;48941;49.516;8.286;2024-01-06T09:02:03;99600.28;;;5.94;100.00
62849;BME280;48941;49.516;8.286;2024-01-06T09:04:31;99605.56;;;5.94;100.00
62849;BME280;48941;49.516;8.286;2024-01-06T09:06:59;99602.09;;;5.94;100.00
62849;BME280;48941;49.516;8.286;2024-01-06T09:09:27;99606.44;;;5.95;100.00
62849;BME280;48941;49.516;8.286;2024-01-06T09:11:56;99608.13;;;5.96;100.00
62849;BME280;48941;49.516;8.286;2024-01-06T09:14:26;99611.50;;;5.98;100.00
62849;BME280;48941;49.516;8.286;2024-01-06T09:16:54;99610.66;;;5.97;100.00
62849;BME280;48941;49.516;8.286;2024-01-06T09:19:23;99614.34;;;5.95;100.00
62849;BME280;48941;49.516;8.286;2024-01-06T09:21:51;99608.88;;;5.98;100.00
62849;BME280;48941;49.516;8.286;2024-01-06T09:24:19;99614.16;;;5.98;100.00
62849;BME280;48941;49.516;8.286;2024-01-06T09:26:47;99617.63;;;5.98;100.00
62849;BME280;48941;49.516;8.286;2024-01-06T09:29:16;99616.78;;;5.98;100.00
62849;BME280;48941;49.516;8.286;2024-01-06T09:31:44;99621.25;;;5.97;100.00
62849;BME280;48941;49.516;8.286;2024-01-06T09:34:12;99620.16;;;6.00;100.00
62849;BME280;48941;49.516;8.286;2024-01-06T09:36:42;99622.81;;;6.00;100.00
62849;BME280;48941;49.516;8.286;2024-01-06T09:39:09;99633.91;;;6.05;100.00
62849;BME280;48941;49.516;8.286;2024-01-06T09:41:37;99625.00;;;6.06;100.00
62849;BME280;48941;49.516;8.286;2024-01-06T09:44:05;99632.72;;;6.09;100.00
62849;BME280;48941;49.516;8.286;2024-01-06T09:46:34;99635.97;;;6.13;100.00
62849;BME280;48941;49.516;8.286;2024-01-06T09:49:03;99634.78;;;6.17;100.00
62849;BME280;48941;49.516;8.286;2024-01-06T09:51:35;99638.19;;;6.19;100.00
62849;BME280;48941;49.516;8.286;2024-01-06T09:54:09;99636.47;;;6.18;100.00
62849;BME280;48941;49.516;8.286;2024-01-06T09:56:39;99640.06;;;6.17;100.00
62849;BME280;48941;49.516;8.286;2024-01-06T09:59:07;99643.34;;;6.21;100.00
62849;BME280;48941;49.516;8.286;2024-01-06T10:01:35;99642.72;;;6.17;100.00
62849;BME280;48941;49.516;8.286;2024-01-06T10:04:02;99645.13;;;6.20;100.00
62849;BME280;48941;49.516;8.286;2024-01-06T10:06:30;99646.13;;;6.19;100.00
62849;BME280;48941;49.516;8.286;2024-01-06T10:08:59;99644.19;;;6.21;100.00
62849;BME280;48941;49.516;8.286;2024-01-06T10:11:28;99648.63;;;6.21;100.00
62849;BME280;48941;49.516;8.286;2024-01-06T10:13:57;99640.59;;;6.22;100.00
62849;BME280;48941;49.516;8.286;2024-01-06T10:16:24;99640.47;;;6.24;100.00
62849;BME280;48941;49.516;8.286;2024-01-06T10:18:53;99643.84;;;6.26;100.00
62849;BME280;48941;49.516;8.286;2024-01-06T10:21:21;99640.97;;;6.29;100.00
62849;BME280;48941;49.516;8.286;2024-01-06T10:23:50;99641.69;;;6.31;100.00
62849;BME280;48941;49.516;8.286;2024-01-06T10:26:18;99639.56;;;6.36;100.00
62849;BME280;48941;49.516;8.286;2024-01-06T10:28:49;99635.09;;;6.36;100.00
62849;BME280;48941;49.516;8.286;2024-01-06T10:31:18;99638.38;;;6.40;100.00
62849;BME280;48941;49.516;8.286;2024-01-06T10:33:46;99639.19;;;6.41;100.00
62849;BME280;48941;49.516;8.286;2024-01-06T10:36:15;99623.34;;;6.41;100.00
62849;BME280;48941;49.516;8.286;2024-01-06T10:38:44;99631.16;;;6.42;100.00
62849;BME280;48941;49.516;8.286;2024-01-06T10:41:12;99625.97;;;6.41;100.00
62849;BME280;48941;49.516;8.286;2024-01-06T10:43:42;99621.41;;;6.43;100.00
62849;BME280;48941;49.516;8.286;2024-01-06T10:46:14;99617.56;;;6.47;100.00
62849;BME280;48941;49.516;8.286;2024-01-06T10:48:43;99621.69;;;6.51;100.00
62849;BME280;48941;49.516;8.286;2024-01-06T10:51:13;99621.56;;;6.52;100.00
62849;BME280;48941;49.516;8.286;2024-01-06T10:53:43;99625.78;;;6.55;100.00
62849;BME280;48941;49.516;8.286;2024-01-06T10:56:10;99628.31;;;6.56;100.00
62849;BME280;48941;49.516;8.286;2024-01-06T10:58:42;99621.25;;;6.57;100.00
62849;BME280;48941;49.516;8.286;2024-01-06T11:01:20;99626.19;;;6.62;100.00
62849;BME280;48941;49.516;8.286;2024-01-06T11:03:54;99623.41;;;6.63;100.00
62849;BME280;48941;49.516;8.286;2024-01-06T11:06:23;99622.44;;;6.64;100.00
62849;BME280;48941;49.516;8.286;2024-01-06T11:08:56;99625.34;;;6.61;100.00
62849;BME280;48941;49.516;8.286;2024-01-06T11:11:25;99633.38;;;6.60;100.00
62849;BME280;48941;49.516;8.286;2024-01-06T11:13:53;99626.19;;;6.62;100.00
62849;BME280;48941;49.516;8.286;2024-01-06T11:16:34;99618.00;;;6.65;100.00
62849;BME280;48941;49.516;8.286;2024-01-06T11:19:03;99624.00;;;6.67;100.00
62849;BME280;48941;49.516;8.286;2024-01-06T11:21:51;99623.69;;;6.71;100.00
62849;BME280;48941;49.516;8.286;2024-01-06T11:24:22;99623.53;;;6.73;100.00
62849;BME280;48941;49.516;8.286;2024-01-06T11:26:56;99616.31;;;6.75;100.00
62849;BME280;48941;49.516;8.286;2024-01-06T11:29:24;99623.22;;;6.77;100.00
62849;BME280;48941;49.516;8.286;2024-01-06T11:32:24;99618.38;;;6.83;100.00
62849;BME280;48941;49.516;8.286;2024-01-06T11:34:53;99624.41;;;6.85;100.00
62849;BME280;48941;49.516;8.286;2024-01-06T11:37:34;99620.81;;;6.86;100.00
62849;BME280;48941;49.516;8.286;2024-01-06T11:40:07;99614.69;;;6.85;100.00
62849;BME280;48941;49.516;8.286;2024-01-06T11:42:35;99614.69;;;6.85;100.00
62849;BME280;48941;49.516;8.286;2024-01-06T11:45:04;99607.69;;;6.84;100.00
62849;BME280;48941;49.516;8.286;2024-01-06T11:47:35;99612.75;;;6.87;100.00
62849;BME280;48941;49.516;8.286;2024-01-06T11:50:04;99606.38;;;6.90;100.00
62849;BME280;48941;49.516;8.286;2024-01-06T11:52:33;99616.59;;;6.94;100.00
62849;BME280;48941;49.516;8.286;2024-01-06T11:55:01;99613.72;;;6.97;100.00
62849;BME280;48941;49.516;8.286;2024-01-06T11:57:29;99609.16;;;7.00;100.00
62849;BME280;48941;49.516;8.286;2024-01-06T11:59:59;99608.91;;;7.03;100.00
62849;BME280;48941;49.516;8.286;2024-01-06T12:02:26;99614.09;;;7.04;100.00
62849;BME280;48941;49.516;8.286;2024-01-06T12:04:55;99607.59;;;7.08;100.00
62849;BME280;48941;49.516;8.286;2024-01-06T12:07:24;99613.72;;;7.09;100.00
62849;BME280;48941;49.516;8.286;2024-01-06T12:10:03;99614.31;;;7.12;100.00
62849;BME280;48941;49.516;8.286;2024-01-06T12:12:31;99616.97;;;7.12;100.00
62849;BME280;48941;49.516;8.286;2024-01-06T12:14:59;99609.53;;;7.17;100.00
62849;BME280;48941;49.516;8.286;2024-01-06T12:17:31;99605.78;;;7.20;100.00
62849;BME280;48941;49.516;8.286;2024-01-06T12:20:00;99602.19;;;7.21;100.00
62849;BME280;48941;49.516;8.286;2024-01-06T12:22:28;99602.91;;;7.23;100.00
62849;BME280;48941;49.516;8.286;2024-01-06T12:24:58;99608.66;;;7.28;100.00
62849;BME280;48941;49.516;8.286;2024-01-06T12:27:26;99602.28;;;7.31;100.00
62849;BME280;48941;49.516;8.286;2024-01-06T12:29:54;99602.28;;;7.31;100.00
62849;BME280;48941;49.516;8.286;2024-01-06T12:32:22;99606.50;;;7.33;100.00
62849;BME280;48941;49.516;8.286;2024-01-06T12:34:51;99604.59;;;7.35;100.00
62849;BME280;48941;49.516;8.286;2024-01-06T12:37:22;99608.31;;;7.33;100.00
62849;BME280;48941;49.516;8.286;2024-01-06T12:39:50;99606.84;;;7.29;100.00
62849;BME280;48941;49.516;8.286;2024-01-06T12:42:18;99607.84;;;7.28;100.00
62849;BME280;48941;49.516;8.286;2024-01-06T12:44:48;99607.00;;;7.27;100.00
62849;BME280;48941;49.516;8.286;2024-01-06T12:47:16;99609.75;;;7.26;100.00
62849;BME280;48941;49.516;8.286;2024-01-06T12:49:44;99604.47;;;7.26;100.00
62849;BME280;48941;49.516;8.286;2024-01-06T12:52:12;99610.72;;;7.25;100.00
62849;BME280;48941;49.516;8.286;2024-01-06T12:54:41;99609.03;;;7.24;100.00
62849;BME280;48941;49.516;8.286;2024-01-06T12:57:13;99615.28;;;7.23;100.00
62849;BME280;48941;49.516;8.286;2024-01-06T12:59:41;99618.81;;;7.23;100.00
62849;BME280;48941;49.516;8.286;2024-01-06T13:02:09;99614.72;;;7.19;100.00
62849;BME280;48941;49.516;8.286;2024-01-06T13:04:37;99612.91;;;7.20;100.00
62849;BME280;48941;49.516;8.286;2024-01-06T13:07:05;99615.28;;;7.23;100.00
62849;BME280;48941;49.516;8.286;2024-01-06T13:09:33;99613.84;;;7.18;100.00